createdAt,value
2022-08-09T00:00:25.946Z,24.86
2022-08-09T00:01:25.999Z,24.87
2022-08-09T00:02:25.972Z,24.87
2022-08-09T00:04:03.773Z,24.88
2022-08-09T00:04:33.927Z,24.88
2022-08-09T00:06:15.884Z,24.88
2022-08-09T00:06:26.048Z,24.88
2022-08-09T00:07:26.074Z,24.88
2022-08-09T00:08:32.410Z,24.88
2022-08-09T00:09:26.088Z,24.88
2022-08-09T00:10:26.115Z,24.88
2022-08-09T00:11:27.671Z,24.89
2022-08-09T00:12:26.179Z,24.89
2022-08-09T00:13:26.151Z,24.88
2022-08-09T00:14:36.287Z,24.89
2022-08-09T00:15:57.487Z,24.88
2022-08-09T00:16:36.720Z,24.88
2022-08-09T00:18:10.273Z,24.88
2022-08-09T00:18:26.292Z,24.88
2022-08-09T00:19:27.773Z,24.88
2022-08-09T00:20:26.339Z,24.89
2022-08-09T00:21:26.324Z,24.89
2022-08-09T00:22:34.990Z,24.90
2022-08-09T00:23:55.964Z,24.90
2022-08-09T00:24:27.576Z,24.90
2022-08-09T00:25:33.087Z,24.90
2022-08-09T00:26:29.798Z,24.90
2022-08-09T00:27:27.748Z,24.90
2022-08-09T00:28:27.302Z,24.90
2022-08-09T00:29:39.101Z,24.90
2022-08-09T00:30:26.805Z,24.90
2022-08-09T00:31:59.948Z,24.90
2022-08-09T00:32:27.381Z,24.90
2022-08-09T00:33:32.768Z,24.90
2022-08-09T00:34:26.603Z,24.90
2022-08-09T00:35:26.617Z,24.91
2022-08-09T00:36:27.239Z,24.91
2022-08-09T00:37:26.676Z,24.91
2022-08-09T00:38:26.681Z,24.91
2022-08-09T00:40:12.361Z,24.91
2022-08-09T00:40:30.200Z,24.91
2022-08-09T00:44:10.445Z,24.91
2022-08-09T00:44:27.174Z,24.91
2022-08-09T00:44:33.402Z,24.86
2022-08-09T00:45:34.657Z,24.81
2022-08-09T00:46:56.941Z,24.81
2022-08-09T00:47:39.608Z,24.83
2022-08-09T00:48:33.240Z,24.84
2022-08-09T00:49:33.271Z,24.86
2022-08-09T00:50:33.285Z,24.88
2022-08-09T00:51:33.858Z,24.89
2022-08-09T00:52:34.409Z,24.90
2022-08-09T00:53:33.298Z,24.90
2022-08-09T00:54:36.110Z,24.91
2022-08-09T00:56:05.130Z,24.91
2022-08-09T00:56:33.355Z,24.91
2022-08-09T00:57:35.264Z,24.91
2022-08-09T00:58:33.408Z,24.91
2022-08-09T00:59:41.156Z,24.91
2022-08-09T01:00:35.271Z,24.91
2022-08-09T01:01:44.959Z,24.91
2022-08-09T01:02:33.819Z,24.91
2022-08-09T01:03:33.474Z,24.91
2022-08-09T01:04:33.501Z,24.91
2022-08-09T01:05:51.643Z,24.91
2022-08-09T01:06:35.427Z,24.91
2022-08-09T01:07:37.562Z,24.91
2022-08-09T01:08:33.579Z,24.91
2022-08-09T01:09:35.806Z,24.91
2022-08-09T01:10:33.628Z,24.90
2022-08-09T01:11:33.668Z,24.90
2022-08-09T01:12:33.897Z,24.90
2022-08-09T01:13:53.189Z,24.89
2022-08-09T01:14:33.703Z,24.89
2022-08-09T01:15:33.732Z,24.89
2022-08-09T01:16:33.749Z,24.88
2022-08-09T01:17:34.134Z,24.88
2022-08-09T01:18:33.811Z,24.88
2022-08-09T01:19:42.591Z,24.89
2022-08-09T01:20:33.833Z,24.89
2022-08-09T01:21:44.640Z,24.89
2022-08-09T01:22:34.322Z,24.89
2022-08-09T01:24:03.053Z,24.89
2022-08-09T01:24:33.906Z,24.89
2022-08-09T01:25:41.531Z,24.89
2022-08-09T01:26:33.947Z,24.89
2022-08-09T01:27:33.942Z,24.89
2022-08-09T01:28:33.988Z,24.90
2022-08-09T01:29:41.264Z,24.90
2022-08-09T01:30:51.277Z,24.90
2022-08-09T01:32:29.157Z,24.90
2022-08-09T01:32:48.632Z,24.90
2022-08-09T01:33:34.080Z,24.89
2022-08-09T01:34:34.107Z,24.88
2022-08-09T01:35:38.740Z,24.89
2022-08-09T01:36:34.164Z,24.89
2022-08-09T01:38:05.473Z,24.90
2022-08-09T01:38:34.213Z,24.90
2022-08-09T01:39:35.733Z,24.90
2022-08-09T01:40:34.259Z,24.90
2022-08-09T01:41:34.259Z,24.90
2022-08-09T01:42:34.440Z,24.90
2022-08-09T01:43:50.251Z,24.90
2022-08-09T01:44:34.369Z,24.90
2022-08-09T01:45:34.349Z,24.89
2022-08-09T01:46:34.372Z,24.89
2022-08-09T01:47:34.370Z,24.88
2022-08-09T01:48:34.387Z,24.88
2022-08-09T01:49:38.807Z,24.87
2022-08-09T01:50:36.880Z,24.86
2022-08-09T01:51:34.405Z,24.86
2022-08-09T01:52:34.427Z,24.86
2022-08-09T01:53:41.049Z,24.86
2022-08-09T01:54:34.483Z,24.86
2022-08-09T01:55:34.459Z,24.86
2022-08-09T01:56:34.513Z,24.87
2022-08-09T01:57:40.204Z,24.87
2022-08-09T01:58:34.560Z,24.87
2022-08-09T01:59:50.808Z,24.88
2022-08-09T02:00:36.267Z,24.88
2022-08-09T02:01:58.715Z,24.88
2022-08-09T02:02:34.946Z,24.88
2022-08-09T02:03:34.601Z,24.87
2022-08-09T02:04:34.628Z,24.87
2022-08-09T02:05:35.474Z,24.87
2022-08-09T02:06:34.674Z,24.87
2022-08-09T02:08:35.353Z,24.87
2022-08-09T02:08:58.667Z,24.87
2022-08-09T02:09:42.316Z,24.86
2022-08-09T02:10:34.742Z,24.85
2022-08-09T02:11:42.126Z,24.86
2022-08-09T02:12:35.328Z,24.86
2022-08-09T02:13:37.613Z,24.86
2022-08-09T02:14:34.829Z,24.87
2022-08-09T02:15:48.990Z,24.87
2022-08-09T02:16:59.014Z,24.87
2022-08-09T02:18:00.004Z,24.87
2022-08-09T02:18:34.912Z,24.87
2022-08-09T02:19:38.664Z,24.87
2022-08-09T02:20:34.949Z,24.87
2022-08-09T02:21:34.999Z,24.87
2022-08-09T02:22:36.031Z,24.87
2022-08-09T02:23:40.094Z,24.88
2022-08-09T02:24:35.077Z,24.88
2022-08-09T02:25:42.671Z,24.88
2022-08-09T02:26:35.090Z,24.88
2022-08-09T02:27:58.085Z,24.88
2022-08-09T02:28:35.132Z,24.88
2022-08-09T02:29:35.127Z,24.87
2022-08-09T02:30:35.187Z,24.87
2022-08-09T02:31:36.352Z,24.87
2022-08-09T02:32:35.159Z,24.87
2022-08-09T02:33:38.223Z,24.87
2022-08-09T02:34:41.333Z,24.87
2022-08-09T02:36:01.252Z,24.87
2022-08-09T02:36:35.221Z,24.87
2022-08-09T02:37:36.674Z,24.87
2022-08-09T02:38:35.446Z,24.87
2022-08-09T02:39:41.801Z,24.87
2022-08-09T02:40:35.312Z,24.87
2022-08-09T02:41:35.299Z,24.87
2022-08-09T02:42:35.306Z,24.87
2022-08-09T02:43:53.576Z,24.87
2022-08-09T02:44:35.360Z,24.87
2022-08-09T02:45:35.365Z,24.86
2022-08-09T02:46:35.377Z,24.87
2022-08-09T02:47:57.613Z,24.87
2022-08-09T02:48:35.396Z,24.87
2022-08-09T02:49:40.909Z,24.87
2022-08-09T02:50:35.430Z,24.87
2022-08-09T02:51:40.114Z,24.87
2022-08-09T02:52:35.486Z,24.87
2022-08-09T02:53:35.470Z,24.88
2022-08-09T02:54:35.499Z,24.88
2022-08-09T02:55:57.450Z,24.88
2022-08-09T02:56:35.543Z,24.87
2022-08-09T02:57:40.461Z,24.87
2022-08-09T02:58:37.953Z,24.87
2022-08-09T02:59:36.390Z,24.87
2022-08-09T03:00:35.631Z,24.87
2022-08-09T03:02:05.165Z,24.87
2022-08-09T03:02:35.988Z,24.86
2022-08-09T03:03:59.567Z,24.86
2022-08-09T03:04:35.673Z,24.86
2022-08-09T03:05:35.695Z,24.86
2022-08-09T03:06:36.225Z,24.86
2022-08-09T03:07:35.693Z,24.87
2022-08-09T03:08:35.729Z,24.87
2022-08-09T03:09:35.745Z,24.87
2022-08-09T03:10:35.779Z,24.87
2022-08-09T03:12:09.797Z,24.87
2022-08-09T03:12:35.805Z,24.87
2022-08-09T03:13:43.858Z,24.87
2022-08-09T03:14:36.760Z,24.86
2022-08-09T03:16:04.608Z,24.85
2022-08-09T03:16:41.399Z,24.84
2022-08-09T03:17:35.894Z,24.83
2022-08-09T03:18:35.901Z,24.82
2022-08-09T03:19:58.790Z,24.81
2022-08-09T03:20:35.955Z,24.81
2022-08-09T03:21:36.539Z,24.80
2022-08-09T03:22:42.145Z,24.80
2022-08-09T03:23:35.981Z,24.80
2022-08-09T03:24:42.685Z,24.79
2022-08-09T03:25:58.780Z,24.79
2022-08-09T03:26:36.093Z,24.79
2022-08-09T03:27:44.580Z,24.79
2022-08-09T03:28:36.140Z,24.79
2022-08-09T03:29:56.940Z,24.78
2022-08-09T03:30:36.713Z,24.78
2022-08-09T03:31:42.625Z,24.78
2022-08-09T03:32:37.214Z,24.78
2022-08-09T03:33:54.532Z,24.78
2022-08-09T03:34:36.326Z,24.78
2022-08-09T03:36:11.267Z,24.78
2022-08-09T03:36:36.386Z,24.78
2022-08-09T03:37:56.266Z,24.78
2022-08-09T03:38:37.280Z,24.78
2022-08-09T03:39:37.570Z,24.78
2022-08-09T03:40:36.477Z,24.79
2022-08-09T03:41:48.308Z,24.79
2022-08-09T03:42:36.489Z,24.80
2022-08-09T03:43:36.668Z,24.80
2022-08-09T03:44:36.592Z,24.81
2022-08-09T03:46:04.545Z,24.82
2022-08-09T03:46:36.769Z,24.82
2022-08-09T03:47:41.826Z,24.81
2022-08-09T03:48:36.677Z,24.81
2022-08-09T03:49:36.715Z,24.80
2022-08-09T03:50:36.718Z,24.79
2022-08-09T03:51:54.206Z,24.78
2022-08-09T03:52:36.764Z,24.77
2022-08-09T03:53:37.113Z,24.77
2022-08-09T03:54:38.616Z,24.77
2022-08-09T03:55:40.937Z,24.77
2022-08-09T03:56:36.860Z,24.77
2022-08-09T03:57:53.854Z,24.78
2022-08-09T03:58:36.908Z,24.79
2022-08-09T03:59:53.195Z,24.80
2022-08-09T04:00:36.956Z,24.81
2022-08-09T04:01:36.960Z,24.82
2022-08-09T04:02:37.255Z,24.83
2022-08-09T04:04:00.424Z,24.83
2022-08-09T04:04:39.002Z,24.84
2022-08-09T04:05:40.549Z,24.84
2022-08-09T04:06:37.083Z,24.84
2022-08-09T04:07:53.436Z,24.84
2022-08-09T04:08:37.154Z,24.84
2022-08-09T04:09:48.392Z,24.84
2022-08-09T04:10:37.197Z,24.84
2022-08-09T04:11:37.205Z,24.84
2022-08-09T04:12:37.297Z,24.85
2022-08-09T04:14:37.230Z,24.85
2022-08-09T04:15:01.694Z,24.85
2022-08-09T04:15:42.755Z,24.84
2022-08-09T04:16:37.318Z,24.82
2022-08-09T04:17:37.323Z,24.82
2022-08-09T04:18:37.376Z,24.82
2022-08-09T04:19:51.226Z,24.83
2022-08-09T04:20:37.417Z,24.83
2022-08-09T04:21:40.146Z,24.83
2022-08-09T04:22:37.447Z,24.84
2022-08-09T04:23:37.463Z,24.84
2022-08-09T04:24:37.505Z,24.84
2022-08-09T04:25:37.500Z,24.84
2022-08-09T04:26:38.202Z,24.85
2022-08-09T04:27:37.883Z,24.85
2022-08-09T04:28:42.538Z,24.85
2022-08-09T04:29:37.641Z,24.85
2022-08-09T04:30:37.615Z,24.85
2022-08-09T04:31:47.342Z,24.85
2022-08-09T04:32:38.735Z,24.85
2022-08-09T04:33:52.258Z,24.85
2022-08-09T04:34:37.675Z,24.85
2022-08-09T04:35:37.720Z,24.85
2022-08-09T04:36:40.370Z,24.85
2022-08-09T04:37:45.697Z,24.85
2022-08-09T04:38:37.733Z,24.84
2022-08-09T04:39:40.680Z,24.84
2022-08-09T04:40:37.782Z,24.84
2022-08-09T04:41:43.547Z,24.85
2022-08-09T04:42:37.838Z,24.85
2022-08-09T04:43:37.839Z,24.86
2022-08-09T04:44:37.903Z,24.86
2022-08-09T04:45:53.787Z,24.86
2022-08-09T04:46:57.515Z,24.85
2022-08-09T04:47:45.164Z,24.84
2022-08-09T04:48:37.924Z,24.84
2022-08-09T04:49:53.449Z,24.83
2022-08-09T04:50:38.394Z,24.83
2022-08-09T04:51:38.001Z,24.82
2022-08-09T04:52:38.054Z,24.82
2022-08-09T04:53:38.052Z,24.81
2022-08-09T04:54:38.083Z,24.81
2022-08-09T04:55:39.357Z,24.81
2022-08-09T04:56:38.138Z,24.81
2022-08-09T04:57:58.904Z,24.81
2022-08-09T04:58:38.237Z,24.82
2022-08-09T04:59:38.206Z,24.82
2022-08-09T05:00:38.225Z,24.81
2022-08-09T05:01:38.252Z,24.81
2022-08-09T05:02:38.270Z,24.80
2022-08-09T05:03:43.295Z,24.79
2022-08-09T05:04:38.378Z,24.78
2022-08-09T05:05:52.703Z,24.76
2022-08-09T05:06:38.413Z,24.75
2022-08-09T05:07:38.406Z,24.73
2022-08-09T05:08:38.448Z,24.71
2022-08-09T05:09:45.408Z,24.69
2022-08-09T05:10:38.495Z,24.67
2022-08-09T05:11:38.530Z,24.66
2022-08-09T05:12:38.982Z,24.66
2022-08-09T05:13:39.154Z,24.65
2022-08-09T05:14:38.586Z,24.65
2022-08-09T05:15:42.989Z,24.64
2022-08-09T05:16:57.964Z,24.63
2022-08-09T05:18:50.871Z,24.62
2022-08-09T05:19:04.011Z,24.61
2022-08-09T05:19:45.904Z,24.60
2022-08-09T05:20:38.794Z,24.58
2022-08-09T05:21:47.055Z,24.57
2022-08-09T05:23:58.545Z,24.57
2022-08-09T05:24:06.877Z,24.56
2022-08-09T05:24:38.859Z,24.55
2022-08-09T05:25:38.905Z,24.53
2022-08-09T05:26:46.190Z,24.53
2022-08-09T05:27:45.616Z,24.54
2022-08-09T05:28:38.957Z,24.53
2022-08-09T05:29:38.979Z,24.53
2022-08-09T05:30:38.979Z,24.53
2022-08-09T05:31:47.442Z,24.52
2022-08-09T05:32:39.072Z,24.52
2022-08-09T05:33:42.566Z,24.51
2022-08-09T05:34:42.894Z,24.50
2022-08-09T05:35:46.660Z,24.50
2022-08-09T05:36:39.116Z,24.49
2022-08-09T05:37:47.643Z,24.50
2022-08-09T05:38:39.352Z,24.49
2022-08-09T05:39:43.117Z,24.49
2022-08-09T05:40:39.256Z,24.49
2022-08-09T05:41:39.288Z,24.49
2022-08-09T05:42:39.318Z,24.49
2022-08-09T05:43:40.734Z,24.50
2022-08-09T05:44:39.388Z,24.49
2022-08-09T05:45:43.507Z,24.49
2022-08-09T05:46:39.492Z,24.49
2022-08-09T05:47:40.826Z,24.48
2022-08-09T05:48:39.491Z,24.48
2022-08-09T05:50:25.038Z,24.48
2022-08-09T05:50:51.263Z,24.48
2022-08-09T05:51:43.029Z,24.48
2022-08-09T05:52:39.596Z,24.47
2022-08-09T05:53:56.560Z,24.47
2022-08-09T05:54:39.683Z,24.46
2022-08-09T05:55:39.697Z,24.46
2022-08-09T05:56:39.729Z,24.46
2022-08-09T05:57:55.360Z,24.45
2022-08-09T05:58:39.783Z,24.44
2022-08-09T05:59:39.829Z,24.43
2022-08-09T06:00:39.896Z,24.43
2022-08-09T06:01:42.548Z,24.43
2022-08-09T06:02:42.330Z,24.43
2022-08-09T06:03:54.440Z,24.42
2022-08-09T06:04:44.579Z,24.42
2022-08-09T06:05:57.541Z,24.42
2022-08-09T06:06:45.154Z,24.41
2022-08-09T06:07:40.090Z,24.41
2022-08-09T06:08:40.146Z,24.41
2022-08-09T06:09:54.306Z,24.41
2022-08-09T06:10:40.182Z,24.40
2022-08-09T06:11:41.021Z,24.40
2022-08-09T06:12:40.194Z,24.40
2022-08-09T06:13:40.232Z,24.39
2022-08-09T06:14:40.246Z,24.39
2022-08-09T06:15:40.290Z,24.39
2022-08-09T06:16:40.328Z,24.39
2022-08-09T06:17:40.830Z,24.39
2022-08-09T06:18:40.415Z,24.38
2022-08-09T06:19:40.444Z,24.39
2022-08-09T06:20:40.442Z,24.39
2022-08-09T06:21:51.489Z,24.38
2022-08-09T06:22:40.501Z,24.38
2022-08-09T06:23:58.785Z,24.38
2022-08-09T06:24:40.581Z,24.38
2022-08-09T06:25:40.619Z,24.38
2022-08-09T06:26:40.619Z,24.37
2022-08-09T06:27:43.219Z,24.37
2022-08-09T06:28:43.246Z,24.36
2022-08-09T06:29:48.073Z,24.35
2022-08-09T06:30:40.732Z,24.35
2022-08-09T06:32:09.056Z,24.36
2022-08-09T06:33:00.310Z,24.36
2022-08-09T06:33:42.137Z,24.36
2022-08-09T06:34:40.884Z,24.35
2022-08-09T06:35:56.851Z,24.36
2022-08-09T06:36:42.894Z,24.36
2022-08-09T06:37:52.817Z,24.36
2022-08-09T06:38:50.223Z,24.36
2022-08-09T06:39:57.956Z,24.35
2022-08-09T06:40:41.203Z,24.35
2022-08-09T06:42:09.217Z,24.35
2022-08-09T06:42:44.732Z,24.36
2022-08-09T06:43:41.162Z,24.36
2022-08-09T06:44:41.143Z,24.36
2022-08-09T06:46:06.380Z,24.37
2022-08-09T06:46:41.373Z,24.37
2022-08-09T06:47:41.988Z,24.37
2022-08-09T06:48:42.803Z,24.37
2022-08-09T06:50:11.631Z,24.36
2022-08-09T06:50:41.349Z,24.36
2022-08-09T06:51:41.391Z,24.36
2022-08-09T06:52:41.355Z,24.35
2022-08-09T06:53:41.462Z,24.35
2022-08-09T06:54:41.442Z,24.35
2022-08-09T06:55:41.461Z,24.36
2022-08-09T06:56:45.537Z,24.36
2022-08-09T06:58:01.228Z,24.36
2022-08-09T07:00:56.901Z,24.36
2022-08-09T07:01:02.845Z,24.36
2022-08-09T07:01:09.500Z,24.31
2022-08-09T07:02:09.569Z,24.28
2022-08-09T07:03:09.566Z,24.29
2022-08-09T07:04:10.474Z,24.30
2022-08-09T07:05:09.611Z,24.32
2022-08-09T07:06:09.641Z,24.33
2022-08-09T07:07:12.009Z,24.34
2022-08-09T07:08:09.677Z,24.34
2022-08-09T07:09:53.406Z,24.34
2022-08-09T07:10:22.437Z,24.34
2022-08-09T07:11:12.775Z,24.34
2022-08-09T07:12:13.755Z,24.34
2022-08-09T07:13:28.307Z,24.34
2022-08-09T07:14:09.844Z,24.33
2022-08-09T07:16:38.441Z,24.34
2022-08-09T07:16:55.312Z,24.34
2022-08-09T07:17:09.967Z,24.32
2022-08-09T07:18:10.328Z,24.30
2022-08-09T07:19:09.960Z,24.30
2022-08-09T07:20:09.992Z,24.30
2022-08-09T07:21:09.998Z,24.31
2022-08-09T07:22:10.701Z,24.31
2022-08-09T07:23:18.211Z,24.32
2022-08-09T07:24:10.094Z,24.33
2022-08-09T07:25:10.124Z,24.33
2022-08-09T07:26:10.130Z,24.33
2022-08-09T07:27:10.956Z,24.32
2022-08-09T07:28:10.218Z,24.32
2022-08-09T07:29:12.194Z,24.32
2022-08-09T07:30:10.314Z,24.32
2022-08-09T07:31:10.255Z,24.32
2022-08-09T07:32:10.275Z,24.32
2022-08-09T07:33:14.814Z,24.32
2022-08-09T07:34:20.818Z,24.32
2022-08-09T07:35:11.538Z,24.32
2022-08-09T07:36:10.417Z,24.32
2022-08-09T07:37:15.919Z,24.32
2022-08-09T07:38:10.499Z,24.32
2022-08-09T07:39:11.613Z,24.32
2022-08-09T07:40:13.068Z,24.32
2022-08-09T07:41:12.107Z,24.32
2022-08-09T07:42:10.586Z,24.32
2022-08-09T07:43:16.440Z,24.32
2022-08-09T07:44:11.802Z,24.32
2022-08-09T07:45:14.989Z,24.32
2022-08-09T07:46:10.680Z,24.31
2022-08-09T07:47:10.705Z,24.31
2022-08-09T07:48:25.699Z,24.31
2022-08-09T07:49:15.446Z,24.30
2022-08-09T07:50:10.776Z,24.30
2022-08-09T07:52:05.878Z,24.30
2022-08-09T07:52:21.451Z,24.30
2022-08-09T07:53:10.878Z,24.30
2022-08-09T07:54:10.880Z,24.29
2022-08-09T07:55:11.631Z,24.29
2022-08-09T07:56:26.624Z,24.29
2022-08-09T07:57:11.885Z,24.29
2022-08-09T07:58:13.280Z,24.29
2022-08-09T07:59:12.559Z,24.29
2022-08-09T08:00:11.120Z,24.29
2022-08-09T08:01:11.515Z,24.29
2022-08-09T08:02:11.215Z,24.29
2022-08-09T08:03:11.490Z,24.29
2022-08-09T08:04:11.176Z,24.29
2022-08-09T08:05:18.029Z,24.29
2022-08-09T08:06:14.212Z,24.29
2022-08-09T08:08:06.123Z,24.29
2022-08-09T08:09:17.790Z,24.28
2022-08-09T08:09:51.632Z,24.25
2022-08-09T08:10:15.404Z,24.21
2022-08-09T08:12:10.048Z,24.19
2022-08-09T08:12:29.157Z,24.20
2022-08-09T08:13:15.467Z,24.21
2022-08-09T08:14:15.511Z,24.22
2022-08-09T08:15:16.815Z,24.23
2022-08-09T08:16:29.992Z,24.24
2022-08-09T08:17:35.525Z,24.24
2022-08-09T08:18:16.426Z,24.24
2022-08-09T08:19:17.282Z,24.24
2022-08-09T08:20:15.671Z,24.24
2022-08-09T08:21:15.686Z,24.24
2022-08-09T08:22:15.740Z,24.25
2022-08-09T08:23:17.574Z,24.25
2022-08-09T08:24:16.563Z,24.26
2022-08-09T08:25:15.822Z,24.27
2022-08-09T08:26:15.962Z,24.27
2022-08-09T08:27:16.995Z,24.27
2022-08-09T08:28:18.268Z,24.26
2022-08-09T08:29:17.280Z,24.25
2022-08-09T08:30:15.944Z,24.24
2022-08-09T08:31:15.965Z,24.24
2022-08-09T08:32:24.183Z,24.24
2022-08-09T08:33:23.974Z,24.24
2022-08-09T08:34:16.114Z,24.23
2022-08-09T08:35:18.095Z,24.23
2022-08-09T08:36:29.275Z,24.22
2022-08-09T08:37:17.677Z,24.22
2022-08-09T08:38:16.191Z,24.22
2022-08-09T08:39:16.262Z,24.22
2022-08-09T08:40:16.255Z,24.23
2022-08-09T08:41:16.271Z,24.23
2022-08-09T08:42:16.703Z,24.23
2022-08-09T08:43:16.328Z,24.23
2022-08-09T08:44:16.351Z,24.24
2022-08-09T08:45:16.415Z,24.24
2022-08-09T08:46:35.269Z,24.23
2022-08-09T08:47:16.447Z,24.23
2022-08-09T08:48:19.288Z,24.23
2022-08-09T08:49:19.138Z,24.23
2022-08-09T08:50:18.149Z,24.23
2022-08-09T08:51:18.219Z,24.23
2022-08-09T08:52:35.037Z,24.23
2022-08-09T08:53:21.984Z,24.23
2022-08-09T08:54:20.595Z,24.23
2022-08-09T08:55:18.955Z,24.22
2022-08-09T08:56:28.016Z,24.22
2022-08-09T08:57:16.794Z,24.22
2022-08-09T08:58:16.873Z,24.23
2022-08-09T08:59:19.649Z,24.24
2022-08-09T09:00:27.167Z,24.25
2022-08-09T09:01:20.962Z,24.25
2022-08-09T09:02:30.706Z,24.25
2022-08-09T09:03:22.988Z,24.24
2022-08-09T09:04:17.035Z,24.23
2022-08-09T09:05:17.050Z,24.22
2022-08-09T09:06:17.203Z,24.21
2022-08-09T09:07:17.189Z,24.21
2022-08-09T09:08:29.894Z,24.21
2022-08-09T09:09:21.013Z,24.21
2022-08-09T09:10:17.197Z,24.21
2022-08-09T09:11:19.823Z,24.23
2022-08-09T09:12:17.274Z,24.24
2022-08-09T09:13:17.276Z,24.25
2022-08-09T09:14:17.292Z,24.26
2022-08-09T09:15:28.229Z,24.25
2022-08-09T09:16:17.343Z,24.25
2022-08-09T09:17:17.397Z,24.24
2022-08-09T09:18:17.399Z,24.25
2022-08-09T09:20:17.455Z,24.27
2022-08-09T09:21:17.466Z,24.28
2022-08-09T09:22:17.497Z,24.29
2022-08-09T09:23:17.532Z,24.30
2022-08-09T09:24:21.802Z,24.30
2022-08-09T09:26:01.955Z,24.29
2022-08-09T09:26:18.572Z,24.28
2022-08-09T09:28:03.126Z,24.28
2022-08-09T09:28:21.396Z,24.28
2022-08-09T09:29:19.018Z,24.29
2022-08-09T09:30:38.240Z,24.30
2022-08-09T09:32:03.807Z,24.30
2022-08-09T09:32:17.762Z,24.30
2022-08-09T09:33:18.024Z,24.29
2022-08-09T09:34:18.292Z,24.30
2022-08-09T09:35:17.904Z,24.30
2022-08-09T09:36:20.589Z,24.31
2022-08-09T09:37:17.901Z,24.32
2022-08-09T09:38:18.500Z,24.32
2022-08-09T09:39:18.010Z,24.32
2022-08-09T09:40:18.038Z,24.32
2022-08-09T09:41:18.011Z,24.32
2022-08-09T09:42:18.021Z,24.32
2022-08-09T09:43:18.046Z,24.33
2022-08-09T09:44:25.476Z,24.33
2022-08-09T09:45:26.841Z,24.33
2022-08-09T09:47:21.337Z,24.32
2022-08-09T09:48:18.226Z,24.32
2022-08-09T09:49:18.305Z,24.32
2022-08-09T09:50:18.380Z,24.32
2022-08-09T09:51:25.871Z,24.33
2022-08-09T09:52:52.485Z,24.33
2022-08-09T09:53:18.406Z,24.33
2022-08-09T09:54:21.133Z,24.33
2022-08-09T09:55:27.781Z,24.34
2022-08-09T09:56:30.956Z,24.34
2022-08-09T09:58:02.347Z,24.34
2022-08-09T09:58:19.176Z,24.34
2022-08-09T09:59:18.546Z,24.34
2022-08-09T10:00:18.563Z,24.34
2022-08-09T10:01:30.243Z,24.35
2022-08-09T10:02:18.644Z,24.35
2022-08-09T10:03:18.691Z,24.35
2022-08-09T10:04:30.642Z,24.36
2022-08-09T10:05:21.718Z,24.36
2022-08-09T10:06:18.727Z,24.36
2022-08-09T10:07:18.747Z,24.36
2022-08-09T10:08:27.211Z,24.36
2022-08-09T10:09:22.844Z,24.36
2022-08-09T10:10:18.822Z,24.36
2022-08-09T10:12:00.194Z,24.36
2022-08-09T10:12:28.530Z,24.36
2022-08-09T10:13:24.594Z,24.36
2022-08-09T10:14:18.948Z,24.36
2022-08-09T10:15:25.558Z,24.36
2022-08-09T10:16:57.900Z,24.36
2022-08-09T10:17:50.945Z,24.36
2022-08-09T10:18:19.058Z,24.36
2022-08-09T10:19:19.085Z,24.36
2022-08-09T10:20:27.632Z,24.37
2022-08-09T10:21:19.152Z,24.37
2022-08-09T10:22:29.444Z,24.37
2022-08-09T10:23:20.312Z,24.37
2022-08-09T10:24:25.654Z,24.37
2022-08-09T10:25:20.924Z,24.37
2022-08-09T10:26:19.537Z,24.37
2022-08-09T10:27:26.207Z,24.38
2022-08-09T10:28:19.366Z,24.38
2022-08-09T10:29:33.430Z,24.38
2022-08-09T10:34:05.261Z,24.36
2022-08-09T10:34:33.133Z,24.37
2022-08-09T10:35:19.549Z,24.37
2022-08-09T10:36:20.476Z,24.37
2022-08-09T10:37:19.617Z,24.38
2022-08-09T10:38:34.013Z,24.38
2022-08-09T10:39:19.995Z,24.39
2022-08-09T10:40:35.208Z,24.39
2022-08-09T10:41:20.575Z,24.39
2022-08-09T10:42:19.766Z,24.39
2022-08-09T10:43:19.787Z,24.39
2022-08-09T10:44:21.577Z,24.39
2022-08-09T10:45:19.819Z,24.39
2022-08-09T10:46:24.833Z,24.40
2022-08-09T10:48:13.245Z,24.39
2022-08-09T10:48:31.307Z,24.39
2022-08-09T10:49:19.937Z,24.38
2022-08-09T10:50:26.967Z,24.38
2022-08-09T10:51:19.980Z,24.38
2022-08-09T10:52:30.545Z,24.38
2022-08-09T10:53:19.993Z,24.38
2022-08-09T10:54:20.026Z,24.39
2022-08-09T10:55:20.073Z,24.39
2022-08-09T10:56:22.568Z,24.39
2022-08-09T10:57:20.135Z,24.40
2022-08-09T10:58:25.538Z,24.40
2022-08-09T10:59:20.279Z,24.40
2022-08-09T11:00:20.206Z,24.40
2022-08-09T11:03:18.329Z,24.40
2022-08-09T11:03:59.887Z,24.40
2022-08-09T11:04:29.767Z,24.36
2022-08-09T11:05:06.102Z,24.32
2022-08-09T11:06:06.142Z,24.32
2022-08-09T11:07:06.141Z,24.34
2022-08-09T11:08:06.153Z,24.36
2022-08-09T11:09:16.112Z,24.37
2022-08-09T11:10:06.249Z,24.38
2022-08-09T11:11:08.944Z,24.39
2022-08-09T11:12:06.267Z,24.40
2022-08-09T11:13:06.275Z,24.40
2022-08-09T11:14:06.292Z,24.41
2022-08-09T11:15:06.390Z,24.41
2022-08-09T11:16:07.134Z,24.42
2022-08-09T11:17:06.421Z,24.42
2022-08-09T11:18:06.507Z,24.42
2022-08-09T11:19:09.500Z,24.42
2022-08-09T11:20:11.425Z,24.42
2022-08-09T11:21:06.599Z,24.42
2022-08-09T11:22:18.934Z,24.42
2022-08-09T11:23:07.021Z,24.42
2022-08-09T11:24:06.758Z,24.42
2022-08-09T11:25:08.465Z,24.43
2022-08-09T11:26:06.716Z,24.43
2022-08-09T11:27:06.850Z,24.43
2022-08-09T11:28:27.581Z,24.44
2022-08-09T11:29:06.763Z,24.44
2022-08-09T11:30:32.796Z,24.44
2022-08-09T11:31:06.945Z,24.44
2022-08-09T11:32:06.792Z,24.44
2022-08-09T11:33:06.876Z,24.44
2022-08-09T11:34:06.840Z,24.44
2022-08-09T11:35:06.882Z,24.44
2022-08-09T11:36:06.980Z,24.44
2022-08-09T11:37:07.341Z,24.44
2022-08-09T11:38:06.976Z,24.44
2022-08-09T11:39:07.140Z,24.44
2022-08-09T11:40:07.145Z,24.44
2022-08-09T11:41:09.145Z,24.44
2022-08-09T11:42:07.142Z,24.44
2022-08-09T11:43:07.118Z,24.44
2022-08-09T11:44:07.250Z,24.44
2022-08-09T11:45:07.210Z,24.44
2022-08-09T11:46:07.237Z,24.45
2022-08-09T11:47:10.992Z,24.45
2022-08-09T11:48:17.438Z,24.45
2022-08-09T11:49:07.356Z,24.45
2022-08-09T11:50:56.870Z,24.45
2022-08-09T11:53:00.959Z,24.45
2022-08-09T11:53:59.947Z,24.43
2022-08-09T11:54:13.488Z,24.38
2022-08-09T11:54:34.772Z,24.33
2022-08-09T11:55:51.673Z,24.32
2022-08-09T11:56:41.706Z,24.33
2022-08-09T11:57:51.540Z,24.36
2022-08-09T11:58:33.065Z,24.38
2022-08-09T11:59:33.746Z,24.40
2022-08-09T12:00:30.923Z,24.42
2022-08-09T12:02:17.976Z,24.43
2022-08-09T12:02:40.804Z,24.44
2022-08-09T12:03:55.859Z,24.44
2022-08-09T12:04:32.440Z,24.44
2022-08-09T12:05:33.334Z,24.44
2022-08-09T12:06:32.482Z,24.44
2022-08-09T12:07:41.656Z,24.45
2022-08-09T12:08:30.745Z,24.45
2022-08-09T12:09:33.913Z,24.45
2022-08-09T12:10:39.841Z,24.46
2022-08-09T12:11:37.876Z,24.46
2022-08-09T12:12:31.935Z,24.46
2022-08-09T12:14:09.755Z,24.46
2022-08-09T12:14:40.666Z,24.46
2022-08-09T12:15:50.030Z,24.46
2022-08-09T12:16:38.393Z,24.46
2022-08-09T12:17:42.169Z,24.46
2022-08-09T12:18:33.431Z,24.46
2022-08-09T12:19:31.021Z,24.46
2022-08-09T12:20:31.073Z,24.46
2022-08-09T12:21:37.227Z,24.46
2022-08-09T12:22:31.487Z,24.47
2022-08-09T12:23:56.553Z,24.47
2022-08-09T12:24:31.195Z,24.47
2022-08-09T12:25:37.711Z,24.47
2022-08-09T12:26:31.240Z,24.47
2022-08-09T12:29:15.303Z,24.47
2022-08-09T12:29:44.487Z,24.47
2022-08-09T12:30:35.337Z,24.44
2022-08-09T12:30:47.650Z,24.40
2022-08-09T12:31:58.634Z,24.40
2022-08-09T12:32:48.456Z,24.41
2022-08-09T12:33:58.787Z,24.43
2022-08-09T12:34:47.721Z,24.44
2022-08-09T12:35:47.905Z,24.45
2022-08-09T12:36:47.758Z,24.46
2022-08-09T12:37:52.497Z,24.47
2022-08-09T12:38:47.807Z,24.47
2022-08-09T12:39:47.846Z,24.47
2022-08-09T12:40:47.852Z,24.47
2022-08-09T12:41:48.072Z,24.48
2022-08-09T12:42:50.329Z,24.48
2022-08-09T12:44:05.339Z,24.48
2022-08-09T12:44:52.390Z,24.48
2022-08-09T12:45:59.646Z,24.48
2022-08-09T12:46:48.859Z,24.48
2022-08-09T12:47:50.241Z,24.48
2022-08-09T12:48:48.066Z,24.48
2022-08-09T12:49:51.234Z,24.48
2022-08-09T12:50:48.173Z,24.48
2022-08-09T12:52:00.729Z,24.48
2022-08-09T12:53:18.031Z,24.48
2022-08-09T12:53:52.814Z,24.48
2022-08-09T12:56:12.786Z,24.48
2022-08-09T12:56:37.193Z,24.48
2022-08-09T12:56:53.937Z,24.46
2022-08-09T12:57:48.304Z,24.44
2022-08-09T12:58:52.063Z,24.45
2022-08-09T13:00:03.419Z,24.46
2022-08-09T13:00:48.519Z,24.46